Time;durP1;ratioP1;P1;durP2;ratioP2;P2;SDS_P1;SDS_P2;PMS_P1;PMS_P2;Temp;Humidity;BMP_temperature;BMP_pressure;BME280_temperature;BME280_humidity;BME280_pressure;Samples;Min_cycle;Max_cycle;Signal;HPM_P1;HPM_P2
2021/11/29 00:00:41;;;;;;;29.73;16.90;;;;;;;1.29;100.00;95963.19;4938535;29;20052;-76
2021/11/29 00:03:13;;;;;;;31.27;16.17;;;;;;;1.23;100.00;95956.34;4939305;29;20062;-76
2021/11/29 00:05:40;;;;;;;33.10;16.63;;;;;;;1.27;100.00;95971.44;4939499;29;20058;-77
2021/11/29 00:08:07;;;;;;;31.08;16.52;;;;;;;1.27;100.00;95963.47;4966133;23;20055;-80
2021/11/29 00:10:36;;;;;;;33.33;15.80;;;;;;;1.25;100.00;95962.16;4957214;28;20376;-80
2021/11/29 00:13:03;;;;;;;32.70;16.35;;;;;;;1.24;100.00;95957.91;4955019;28;20055;-79
2021/11/29 00:15:30;;;;;;;35.90;16.98;;;;;;;1.20;100.00;95968.41;4956821;29;20051;-80
2021/11/29 00:17:57;;;;;;;31.67;16.25;;;;;;;1.29;100.00;95965.84;4958899;28;20074;-80
2021/11/29 00:20:23;;;;;;;31.25;17.00;;;;;;;1.25;100.00;95960.31;4957556;29;20078;-79
2021/11/29 00:22:50;;;;;;;33.22;17.02;;;;;;;1.31;100.00;95973.53;4957907;28;20111;-78
2021/11/29 00:25:17;;;;;;;34.72;17.52;;;;;;;1.22;100.00;95966.22;4954722;29;20520;-80
2021/11/29 00:27:44;;;;;;;36.17;15.93;;;;;;;1.29;100.00;95983.69;4955222;29;20086;-81
2021/11/29 00:30:12;;;;;;;34.83;16.38;;;;;;;1.33;100.00;95982.81;4956159;28;20114;-82
2021/11/29 00:32:40;;;;;;;30.90;15.35;;;;;;;1.19;100.00;95966.00;4955715;29;20476;-80
2021/11/29 00:35:07;;;;;;;33.45;17.10;;;;;;;1.23;100.00;95977.69;4955195;29;20106;-81
2021/11/29 00:37:34;;;;;;;31.95;16.35;;;;;;;1.19;100.00;95977.47;4956417;28;20051;-82
2021/11/29 00:40:03;;;;;;;31.15;16.35;;;;;;;1.14;100.00;95969.56;4956923;28;20468;-81
2021/11/29 00:42:29;;;;;;;30.42;15.82;;;;;;;1.20;100.00;95979.06;4956707;28;20051;-81
2021/11/29 00:44:56;;;;;;;34.40;17.30;;;;;;;1.25;100.00;95988.81;4957203;28;20717;-80
2021/11/29 00:47:22;;;;;;;33.47;16.23;;;;;;;1.22;100.00;95981.41;4956538;28;20105;-81
2021/11/29 00:49:49;;;;;;;30.20;15.77;;;;;;;1.25;100.00;95984.28;4956280;28;20483;-82
2021/11/29 00:52:15;;;;;;;30.35;16.23;;;;;;;1.22;100.00;95984.09;4955731;28;20110;-80
2021/11/29 00:54:42;;;;;;;32.35;14.90;;;;;;;1.24;100.00;95982.69;4956048;28;20327;-81
2021/11/29 00:57:09;;;;;;;31.55;15.75;;;;;;;1.23;100.00;95991.78;4949081;29;20496;-82
2021/11/29 00:59:35;;;;;;;30.73;15.80;;;;;;;1.29;100.00;95986.38;4941566;29;20454;-81
2021/11/29 01:02:02;;;;;;;29.08;15.32;;;;;;;1.29;100.00;95989.03;4937112;29;20060;-80
2021/11/29 01:04:29;;;;;;;28.58;15.20;;;;;;;1.19;100.00;95990.00;4935485;29;20051;-81
2021/11/29 01:06:56;;;;;;;28.20;14.70;;;;;;;1.27;100.00;96007.97;4956117;28;20047;-81
2021/11/29 01:09:23;;;;;;;28.25;15.10;;;;;;;1.24;100.00;95995.22;4992915;28;20042;-80
2021/11/29 01:11:49;;;;;;;28.60;15.07;;;;;;;1.22;100.00;95992.06;4994845;28;20475;-81
2021/11/29 01:14:16;;;;;;;28.92;14.88;;;;;;;1.23;100.00;95991.00;4994653;28;20078;-81
2021/11/29 01:16:42;;;;;;;24.67;13.73;;;;;;;1.25;100.00;96002.94;4976687;28;20073;-82
2021/11/29 01:19:09;;;;;;;28.38;14.88;;;;;;;1.25;100.00;96002.94;4993853;28;20054;-80
2021/11/29 01:21:36;;;;;;;29.08;14.80;;;;;;;1.15;100.00;96011.13;4994522;28;20094;-81
2021/11/29 01:24:03;;;;;;;29.95;15.02;;;;;;;1.14;100.00;96008.75;4978196;28;20054;-79
2021/11/29 01:26:29;;;;;;;27.67;14.35;;;;;;;1.10;100.00;95997.91;4994378;28;20076;-80
2021/11/29 01:28:56;;;;;;;32.78;14.88;;;;;;;1.08;100.00;96007.28;4979913;28;20073;-80
2021/11/29 01:31:23;;;;;;;28.70;14.82;;;;;;;1.00;100.00;96002.63;4997146;28;20128;-81
2021/11/29 01:33:50;;;;;;;28.65;13.70;;;;;;;1.03;100.00;96018.78;4997148;28;20054;-80
2021/11/29 01:36:17;;;;;;;30.00;14.88;;;;;;;0.98;100.00;96015.44;4979254;28;20070;-79
2021/11/29 01:38:43;;;;;;;27.65;13.77;;;;;;;0.88;100.00;96011.06;4979386;28;20112;-80
2021/11/29 01:41:12;;;;;;;28.63;14.27;;;;;;;0.84;100.00;96010.09;4996585;28;20194;-80
2021/11/29 01:43:39;;;;;;;28.27;13.57;;;;;;;0.91;100.00;96031.00;4996031;28;20108;-79
2021/11/29 01:46:06;;;;;;;28.90;15.18;;;;;;;0.78;100.00;96021.09;4978472;28;20077;-81
2021/11/29 01:48:33;;;;;;;25.52;12.93;;;;;;;0.82;100.00;96030.09;4995388;28;20070;-82
2021/11/29 01:51:00;;;;;;;25.27;13.73;;;;;;;0.81;100.00;96026.63;4996443;28;20461;-80
2021/11/29 01:53:28;;;;;;;27.33;14.13;;;;;;;0.83;100.00;96037.00;4978999;28;20054;-80
2021/11/29 01:55:58;;;;;;;26.70;14.07;;;;;;;0.89;100.00;96041.16;4995352;28;20054;-80
2021/11/29 01:58:26;;;;;;;27.20;14.05;;;;;;;0.89;100.00;96041.97;4994897;28;20136;-79
2021/11/29 02:00:55;;;;;;;26.13;14.23;;;;;;;0.87;100.00;96046.78;4993700;28;20569;-79
2021/11/29 02:03:24;;;;;;;33.80;14.85;;;;;;;0.92;100.00;96040.59;4995329;28;20055;-80
2021/11/29 02:05:52;;;;;;;30.45;14.73;;;;;;;0.97;100.00;96049.28;4977842;28;20050;-80
2021/11/29 02:08:20;;;;;;;30.38;14.57;;;;;;;0.92;100.00;96038.72;4977830;28;20050;-79
2021/11/29 02:10:47;;;;;;;25.35;13.77;;;;;;;0.96;100.00;96050.34;4995013;28;20050;-79
2021/11/29 02:13:17;;;;;;;28.45;14.45;;;;;;;0.96;100.00;96049.56;4994815;28;20054;-80
2021/11/29 02:15:43;;;;;;;33.05;14.77;;;;;;;0.97;100.00;96046.63;4995048;28;20062;-80
2021/11/29 02:18:10;;;;;;;26.55;14.35;;;;;;;1.12;100.00;96043.69;4996085;28;20082;-80
2021/11/29 02:20:37;;;;;;;31.55;14.30;;;;;;;0.97;100.00;96043.94;4978081;28;20054;-80
2021/11/29 02:23:04;;;;;;;28.45;14.50;;;;;;;1.09;100.00;96046.94;4978856;28;20054;-79
2021/11/29 02:25:31;;;;;;;26.95;13.93;;;;;;;1.02;100.00;96051.06;4978185;28;20145;-80
2021/11/29 02:27:58;;;;;;;26.17;14.73;;;;;;;1.06;100.00;96044.84;4995787;28;20125;-80
2021/11/29 02:30:27;;;;;;;23.92;13.57;;;;;;;1.12;100.00;96043.69;4996233;28;20087;-81
2021/11/29 02:32:54;;;;;;;28.60;14.95;;;;;;;1.09;100.00;96046.13;5000796;28;20046;-80
2021/11/29 02:35:21;;;;;;;27.67;14.32;;;;;;;1.05;100.00;96061.13;4984394;28;20517;-80
2021/11/29 02:37:49;;;;;;;26.48;14.15;;;;;;;1.07;100.00;96043.78;4978344;28;20042;-80
2021/11/29 02:40:16;;;;;;;33.90;15.07;;;;;;;1.04;100.00;96048.88;4978514;28;20051;-80
2021/11/29 02:42:42;;;;;;;29.27;14.43;;;;;;;1.15;100.00;96059.09;4996019;28;20637;-81
2021/11/29 02:45:09;;;;;;;25.98;14.00;;;;;;;1.08;100.00;96052.56;4977810;28;20428;-80
2021/11/29 02:47:36;;;;;;;27.90;14.52;;;;;;;1.16;100.00;96059.88;4995238;28;20109;-80
2021/11/29 02:50:03;;;;;;;30.30;13.90;;;;;;;1.11;100.00;96052.75;4979116;28;20105;-80
2021/11/29 02:52:29;;;;;;;28.45;14.25;;;;;;;1.20;100.00;96058.22;4995729;28;20483;-80
2021/11/29 02:54:56;;;;;;;26.85;13.38;;;;;;;1.11;100.00;96051.97;4999049;28;20050;-80
2021/11/29 02:57:23;;;;;;;27.48;14.57;;;;;;;1.20;100.00;96059.00;5011187;28;20046;-80
2021/11/29 02:59:49;;;;;;;30.77;14.65;;;;;;;1.23;100.00;96060.28;4998677;28;20061;-79
2021/11/29 03:02:19;;;;;;;28.13;14.45;;;;;;;1.21;100.00;96052.56;5000295;28;20051;-80
2021/11/29 03:04:47;;;;;;;30.92;14.52;;;;;;;1.20;100.00;96055.53;5010243;28;20065;-81
2021/11/29 03:07:15;;;;;;;30.33;15.68;;;;;;;1.31;100.00;96061.47;4993556;28;20046;-80
2021/11/29 03:09:44;;;;;;;23.15;13.23;;;;;;;1.22;100.00;96059.50;5000423;28;20050;-80
2021/11/29 03:12:11;;;;;;;29.70;15.13;;;;;;;1.21;100.00;96060.56;4996627;28;20109;-81
2021/11/29 03:14:38;;;;;;;27.80;14.93;;;;;;;1.23;100.00;96058.41;4996184;28;20065;-80
2021/11/29 03:17:05;;;;;;;27.17;13.90;;;;;;;1.32;100.00;96053.19;4978136;28;20465;-81
2021/11/29 03:19:35;;;;;;;29.48;14.27;;;;;;;1.32;100.00;96050.50;4977272;28;20058;-80
2021/11/29 03:22:05;;;;;;;27.83;13.93;;;;;;;1.35;100.00;96060.59;4979557;28;20108;-81
2021/11/29 03:24:32;;;;;;;27.73;14.68;;;;;;;1.32;100.00;96047.84;4979711;28;20764;-81
2021/11/29 03:26:59;;;;;;;29.50;14.73;;;;;;;1.32;100.00;96063.84;4979278;28;20082;-81
2021/11/29 03:29:29;;;;;;;33.50;14.00;;;;;;;1.34;100.00;96053.69;4994535;28;20058;-80
2021/11/29 03:32:00;;;;;;;28.70;15.07;;;;;;;1.31;100.00;96066.81;4995326;28;20061;-81
2021/11/29 03:34:28;;;;;;;32.75;15.18;;;;;;;1.16;100.00;96063.31;4995060;28;20055;-81
2021/11/29 03:36:54;;;;;;;28.95;15.18;;;;;;;1.19;100.00;96070.72;4979140;28;20097;-80
2021/11/29 03:39:24;;;;;;;29.98;15.15;;;;;;;1.30;100.00;96065.22;5003113;28;20498;-81
2021/11/29 03:41:54;;;;;;;31.85;15.13;;;;;;;1.26;100.00;96065.03;4975673;28;20081;-81
2021/11/29 03:44:21;;;;;;;28.92;15.00;;;;;;;1.31;100.00;96066.81;4993211;28;20120;-79
2021/11/29 03:46:49;;;;;;;31.65;14.70;;;;;;;1.41;100.00;96077.28;4993914;28;20057;-79
2021/11/29 03:49:17;;;;;;;29.88;15.70;;;;;;;1.29;100.00;96053.78;4993771;28;20140;-79
2021/11/29 03:51:43;;;;;;;30.08;15.70;;;;;;;1.38;100.00;96056.53;4994543;28;20471;-81
2021/11/29 03:54:10;;;;;;;33.10;15.43;;;;;;;1.49;100.00;96064.06;4995181;28;20077;-80
2021/11/29 03:56:37;;;;;;;28.58;15.00;;;;;;;1.47;100.00;96062.78;4978618;28;20054;-81
2021/11/29 03:59:05;;;;;;;29.10;14.70;;;;;;;1.54;100.00;96065.84;4980685;28;20714;-79
2021/11/29 04:01:33;;;;;;;34.17;15.98;;;;;;;1.51;100.00;96061.09;4974800;28;20113;-79
2021/11/29 04:04:01;;;;;;;31.55;15.82;;;;;;;1.44;100.00;96064.16;4992979;28;20594;-80
2021/11/29 04:06:28;;;;;;;31.00;15.88;;;;;;;1.39;100.00;96066.13;4993512;28;20058;-80
2021/11/29 04:08:55;;;;;;;34.40;17.27;;;;;;;1.44;100.00;96061.50;4992677;28;20459;-79
2021/11/29 04:11:21;;;;;;;35.17;16.75;;;;;;;1.42;100.00;96060.22;4993700;28;20078;-80
2021/11/29 04:13:48;;;;;;;34.58;17.52;;;;;;;1.27;100.00;96050.59;4977555;28;20494;-78
2021/11/29 04:16:17;;;;;;;38.28;18.40;;;;;;;1.43;100.00;96064.44;4993428;28;20046;-79
2021/11/29 04:18:44;;;;;;;36.78;18.02;;;;;;;1.32;100.00;96066.50;4994766;28;20051;-80
2021/11/29 04:21:13;;;;;;;38.30;18.92;;;;;;;1.34;100.00;96077.69;5004308;28;20049;-80
2021/11/29 04:23:44;;;;;;;42.22;20.08;;;;;;;1.39;100.00;96079.47;4991533;28;20483;-80
2021/11/29 04:26:14;;;;;;;38.75;19.15;;;;;;;1.33;100.00;96078.75;4975687;28;20066;-81
2021/11/29 04:28:42;;;;;;;42.00;19.92;;;;;;;1.35;100.00;96075.78;4993957;28;20047;-80
2021/11/29 04:31:09;;;;;;;41.95;19.73;;;;;;;1.34;100.00;96082.22;4994689;28;20121;-80
2021/11/29 04:33:36;;;;;;;41.28;19.48;;;;;;;1.30;100.00;96082.00;4994331;28;20046;-80
2021/11/29 04:36:03;;;;;;;38.33;18.33;;;;;;;1.29;100.00;96077.78;4995012;28;20050;-80
2021/11/29 04:38:31;;;;;;;44.28;21.00;;;;;;;1.34;100.00;96082.22;4977959;28;20054;-81
2021/11/29 04:40:58;;;;;;;43.33;21.20;;;;;;;1.27;100.00;96083.38;4994441;28;20054;-81
2021/11/29 04:43:25;;;;;;;44.50;21.55;;;;;;;1.20;100.00;96084.84;4994558;28;20078;-80
2021/11/29 04:45:51;;;;;;;44.15;20.77;;;;;;;1.18;100.00;96090.50;4994104;28;20051;-80
2021/11/29 04:48:18;;;;;;;50.97;21.65;;;;;;;1.23;100.00;96093.06;4976629;28;20043;-82
2021/11/29 04:50:45;;;;;;;44.78;21.50;;;;;;;1.14;100.00;96094.81;4993982;28;20054;-81
2021/11/29 04:53:12;;;;;;;47.45;20.67;;;;;;;1.25;100.00;96093.56;4992845;28;20058;-81
2021/11/29 04:55:39;;;;;;;47.67;22.58;;;;;;;1.13;100.00;96090.56;4977298;28;20073;-82
2021/11/29 04:58:05;;;;;;;48.50;21.75;;;;;;;1.19;100.00;96101.91;4978858;28;20050;-81
2021/11/29 05:00:32;;;;;;;46.70;21.77;;;;;;;1.23;100.00;96102.94;4985108;28;20178;-81
2021/11/29 05:02:59;;;;;;;41.80;20.48;;;;;;;1.20;100.00;96098.19;5000315;28;20050;-81
2021/11/29 05:05:26;;;;;;;44.42;20.70;;;;;;;1.17;100.00;96098.75;5002803;28;20051;-81
2021/11/29 05:08:13;;;;;;;47.05;21.10;;;;;;;1.15;100.00;96100.94;4998900;28;20049;-81
2021/11/29 05:10:40;;;;;;;44.97;21.90;;;;;;;1.09;100.00;96108.22;4981734;28;20054;-81
2021/11/29 05:13:06;;;;;;;46.92;22.35;;;;;;;1.16;100.00;96121.94;5007831;28;20057;-83
2021/11/29 05:15:33;;;;;;;46.65;22.27;;;;;;;1.20;100.00;96128.28;5000066;28;20327;-81
2021/11/29 05:18:00;;;;;;;45.35;21.63;;;;;;;1.04;100.00;96110.97;4999278;28;20043;-82
2021/11/29 05:20:27;;;;;;;47.42;21.67;;;;;;;1.08;100.00;96127.16;5001787;28;20065;-82
2021/11/29 05:22:54;;;;;;;51.67;21.33;;;;;;;1.11;100.00;96123.94;4986698;28;20158;-81
2021/11/29 05:25:21;;;;;;;51.45;23.58;;;;;;;1.10;100.00;96128.47;4999623;28;20057;-82
2021/11/29 05:27:47;;;;;;;51.38;22.60;;;;;;;1.09;100.00;96124.19;5003274;28;20629;-82
2021/11/29 05:30:14;;;;;;;47.75;21.35;;;;;;;1.19;100.00;96133.88;4997374;28;20082;-82
2021/11/29 05:32:40;;;;;;;53.15;23.08;;;;;;;1.12;100.00;96134.28;4984139;28;20054;-83
2021/11/29 05:35:07;;;;;;;50.15;23.95;;;;;;;1.10;100.00;96133.00;5001360;28;20046;-83
2021/11/29 05:37:34;;;;;;;48.20;22.88;;;;;;;1.12;100.00;96136.94;4998951;28;20053;-82
2021/11/29 05:40:02;;;;;;;50.85;22.67;;;;;;;1.20;100.00;96138.16;4992577;28;20051;-82
2021/11/29 05:42:42;;;;;;;45.92;21.55;;;;;;;1.33;100.00;96142.72;4998044;28;20581;-82
2021/11/29 05:45:10;;;;;;;48.40;24.10;;;;;;;1.31;100.00;96149.44;4970283;28;20046;-82
2021/11/29 05:47:37;;;;;;;52.03;23.85;;;;;;;1.21;100.00;96148.50;4966490;28;20101;-82
2021/11/29 05:50:06;;;;;;;52.65;23.17;;;;;;;1.21;100.00;96140.50;4961732;28;20650;-83
2021/11/29 05:52:34;;;;;;;58.53;24.27;;;;;;;1.29;100.00;96154.28;4976376;28;20050;-84
2021/11/29 05:55:00;;;;;;;56.05;24.90;;;;;;;1.17;100.00;96147.53;4989610;28;20124;-84
2021/11/29 05:57:27;;;;;;;51.75;23.02;;;;;;;1.19;100.00;96155.22;4978155;28;21667;-84
2021/11/29 05:59:57;;;;;;;57.20;23.67;;;;;;;1.22;100.00;96166.09;4995111;28;20614;-82
2021/11/29 06:02:23;;;;;;;51.00;23.52;;;;;;;1.16;100.00;96167.25;4978821;28;20108;-83
2021/11/29 06:04:50;;;;;;;54.03;23.75;;;;;;;1.13;100.00;96167.84;4992221;28;20046;-81
2021/11/29 06:07:17;;;;;;;54.15;24.17;;;;;;;1.33;100.00;96169.38;4979656;28;20562;-82
2021/11/29 06:09:44;;;;;;;53.08;23.98;;;;;;;1.25;100.00;96175.38;5035076;23;20208;-77
2021/11/29 06:12:10;;;;;;;54.80;23.65;;;;;;;1.26;100.00;96185.72;4957882;28;20101;-77
2021/11/29 06:14:37;;;;;;;51.05;23.27;;;;;;;1.30;100.00;96185.94;4977716;28;20051;-75
2021/11/29 06:17:04;;;;;;;55.70;24.52;;;;;;;1.27;100.00;96186.53;4965146;28;20047;-76
2021/11/29 06:19:31;;;;;;;56.80;23.67;;;;;;;1.36;100.00;96198.13;4977268;28;20142;-77
2021/11/29 06:21:57;;;;;;;57.97;24.98;;;;;;;1.31;100.00;96189.41;4962643;28;20055;-77
2021/11/29 06:24:25;;;;;;;65.68;26.05;;;;;;;1.32;100.00;96185.69;4952668;29;20067;-77
2021/11/29 06:26:52;;;;;;;55.13;24.75;;;;;;;1.37;100.00;96197.03;4958064;28;20547;-76
2021/11/29 06:29:18;;;;;;;54.72;25.02;;;;;;;1.36;100.00;96208.78;4978680;28;20499;-77
2021/11/29 06:31:45;;;;;;;53.45;24.20;;;;;;;1.36;100.00;96211.44;4991185;28;20082;-77
2021/11/29 06:34:12;;;;;;;58.33;25.08;;;;;;;1.29;100.00;96207.59;4955760;28;20066;-77
2021/11/29 06:36:38;;;;;;;57.65;25.40;;;;;;;1.33;100.00;96209.38;4987894;28;20058;-77
2021/11/29 06:39:05;;;;;;;53.33;24.48;;;;;;;1.41;100.00;96211.38;4987060;28;20051;-78
2021/11/29 06:41:32;;;;;;;55.83;24.02;;;;;;;1.36;100.00;96211.44;4967983;28;20083;-76
2021/11/29 06:43:58;;;;;;;57.35;24.08;;;;;;;1.39;100.00;96220.75;4937243;29;20500;-76
2021/11/29 06:46:25;;;;;;;54.53;25.02;;;;;;;1.40;100.00;96228.44;4952960;28;20543;-77
2021/11/29 06:48:52;;;;;;;54.38;24.92;;;;;;;1.50;100.00;96238.16;4936020;29;20114;-77
2021/11/29 06:51:23;;;;;;;54.90;25.33;;;;;;;1.43;100.00;96229.72;4964389;28;20047;-76
2021/11/29 06:53:50;;;;;;;56.03;24.30;;;;;;;1.38;100.00;96233.28;4945312;28;20051;-77
2021/11/29 06:56:17;;;;;;;58.83;26.40;;;;;;;1.44;100.00;96234.00;4968021;28;20078;-77
2021/11/29 06:58:43;;;;;;;53.83;25.55;;;;;;;1.42;100.00;96236.16;4941242;28;20081;-75
2021/11/29 07:01:10;;;;;;;57.45;24.92;;;;;;;1.42;100.00;96236.16;4967356;28;20047;-78
2021/11/29 07:03:37;;;;;;;58.00;25.55;;;;;;;1.46;100.00;96231.81;4965593;28;20510;-78
2021/11/29 07:06:05;;;;;;;54.88;24.92;;;;;;;1.50;100.00;96246.16;4961422;28;20051;-78
2021/11/29 07:08:32;;;;;;;57.35;24.77;;;;;;;1.48;100.00;96235.78;4945373;28;20043;-75
2021/11/29 07:10:59;;;;;;;50.95;23.58;;;;;;;1.43;100.00;96246.53;4968622;28;20639;-78
2021/11/29 07:13:26;;;;;;;53.97;24.23;;;;;;;1.48;100.00;96237.66;5001518;28;20483;-77
2021/11/29 07:15:54;;;;;;;57.25;24.55;;;;;;;1.49;100.00;96245.38;4977075;28;20466;-75
2021/11/29 07:18:25;;;;;;;49.00;23.02;;;;;;;1.45;100.00;96240.88;4977991;28;20042;-78
2021/11/29 07:20:53;;;;;;;53.30;24.52;;;;;;;1.60;100.00;96251.34;4983772;28;20491;-77
2021/11/29 07:23:19;;;;;;;52.45;25.17;;;;;;;1.54;100.00;96253.28;4974088;28;20097;-77
2021/11/29 07:25:49;;;;;;;55.30;24.00;;;;;;;1.58;100.00;96262.28;4974916;28;20483;-78
2021/11/29 07:28:15;;;;;;;55.80;23.55;;;;;;;1.70;100.00;96265.28;4974788;28;20606;-75
2021/11/29 07:30:42;;;;;;;52.38;23.75;;;;;;;1.66;100.00;96266.16;4989474;28;20054;-76
2021/11/29 07:33:09;;;;;;;53.92;23.90;;;;;;;1.75;100.00;96264.41;4994342;28;20054;-77
2021/11/29 07:35:35;;;;;;;56.63;24.30;;;;;;;1.76;100.00;96276.66;4989787;28;20089;-78
2021/11/29 07:38:03;;;;;;;55.78;23.40;;;;;;;1.78;100.00;96277.19;4975614;28;20043;-77
2021/11/29 07:40:31;;;;;;;54.25;23.17;;;;;;;1.82;100.00;96270.16;4994234;28;20046;-76
2021/11/29 07:43:04;;;;;;;51.03;23.45;;;;;;;1.81;100.00;96285.38;4993368;28;20108;-78
2021/11/29 07:45:32;;;;;;;50.95;24.38;;;;;;;1.80;100.00;96283.00;4993635;28;20055;-77
2021/11/29 07:47:58;;;;;;;47.95;22.92;;;;;;;1.84;100.00;96278.66;4976049;28;20046;-73
2021/11/29 07:50:26;;;;;;;49.35;23.02;;;;;;;1.68;100.00;96283.44;4976150;28;20069;-73
2021/11/29 07:52:53;;;;;;;53.00;22.90;;;;;;;1.63;100.00;96288.06;4976683;28;20054;-76
2021/11/29 07:55:24;;;;;;;50.40;22.50;;;;;;;1.64;100.00;96282.47;4976970;28;20553;-78
2021/11/29 07:57:52;;;;;;;50.42;22.60;;;;;;;1.67;100.00;96289.09;4966071;28;20113;-79
2021/11/29 08:00:26;;;;;;;52.92;23.75;;;;;;;1.62;100.00;96286.50;4959152;28;20173;-80
2021/11/29 08:02:56;;;;;;;47.43;22.60;;;;;;;1.71;100.00;96298.06;4993594;28;20054;-78
2021/11/29 08:05:25;;;;;;;50.42;23.38;;;;;;;1.76;100.00;96306.78;4994064;28;20047;-77
2021/11/29 08:07:56;;;;;;;49.90;22.65;;;;;;;1.74;100.00;96306.31;4974710;28;20046;-78
2021/11/29 08:10:24;;;;;;;49.03;22.27;;;;;;;1.89;100.00;96316.72;4992812;28;20078;-77
2021/11/29 08:12:52;;;;;;;52.10;23.55;;;;;;;1.68;100.00;96293.31;4978801;28;20043;-78
2021/11/29 08:15:20;;;;;;;61.15;23.42;;;;;;;1.84;100.00;96305.34;4994584;28;20093;-78
2021/11/29 08:17:50;;;;;;;55.70;22.20;;;;;;;1.70;100.00;96291.94;4975604;28;20054;-78
2021/11/29 08:20:19;;;;;;;50.85;23.10;;;;;;;1.74;100.00;96313.50;4995121;28;20046;-78
2021/11/29 08:22:48;;;;;;;55.55;23.98;;;;;;;1.84;100.00;96311.47;4981471;28;20737;-79
2021/11/29 08:25:18;;;;;;;53.85;23.60;;;;;;;1.67;100.00;96313.09;4973744;28;20562;-78
2021/11/29 08:27:47;;;;;;;53.25;22.17;;;;;;;1.68;100.00;96320.78;4974371;28;20145;-78
2021/11/29 08:30:17;;;;;;;51.72;22.25;;;;;;;1.66;100.00;96327.50;4983327;28;20054;-79
2021/11/29 08:32:44;;;;;;;53.00;22.92;;;;;;;1.84;100.00;96335.47;4991068;28;20128;-78
2021/11/29 08:35:14;;;;;;;53.85;23.75;;;;;;;1.92;100.00;96331.34;4968502;28;20529;-78
2021/11/29 08:37:49;;;;;;;53.05;23.70;;;;;;;1.92;100.00;96322.56;4975168;28;20054;-79
2021/11/29 08:40:26;;;;;;;51.90;23.95;;;;;;;1.88;100.00;96330.38;4997005;28;20085;-78
2021/11/29 08:42:59;;;;;;;54.83;23.08;;;;;;;2.00;100.00;96325.34;4974784;28;20046;-78
2021/11/29 08:45:28;;;;;;;53.63;22.48;;;;;;;1.96;100.00;96323.56;4975750;28;20050;-78
2021/11/29 08:47:56;;;;;;;53.30;22.00;;;;;;;2.12;100.00;96332.88;4978339;28;20046;-77
2021/11/29 08:50:35;;;;;;;48.60;21.77;;;;;;;2.06;100.00;96340.22;4975257;28;20054;-78
2021/11/29 08:53:06;;;;;;;45.38;21.35;;;;;;;2.20;100.00;96348.25;4977986;28;20130;-77
2021/11/29 08:55:35;;;;;;;52.22;20.95;;;;;;;2.06;100.00;96350.88;4996716;28;20643;-78
2021/11/29 08:58:07;;;;;;;45.63;21.17;;;;;;;2.01;100.00;96347.50;4996010;28;20158;-78
2021/11/29 09:00:37;;;;;;;41.38;19.52;;;;;;;2.03;100.00;96351.47;4980430;28;20610;-79
2021/11/29 09:03:08;;;;;;;43.58;20.23;;;;;;;2.10;100.00;96357.22;4980498;28;20522;-80
2021/11/29 09:05:40;;;;;;;45.38;20.80;;;;;;;2.10;100.00;96351.88;4980583;28;20049;-79
2021/11/29 09:08:12;;;;;;;43.10;19.63;;;;;;;2.05;100.00;96357.31;4993726;28;20077;-78
2021/11/29 09:10:40;;;;;;;42.75;19.38;;;;;;;2.09;100.00;96365.53;4991953;28;20050;-78
2021/11/29 09:13:30;;;;;;;40.45;18.95;;;;;;;2.02;100.00;96357.88;4997806;28;20141;-78
2021/11/29 09:16:02;;;;;;;43.40;18.73;;;;;;;1.94;100.00;96363.88;4982368;28;20046;-78
2021/11/29 09:18:30;;;;;;;39.80;18.80;;;;;;;2.00;100.00;96364.59;4995829;28;20057;-78
2021/11/29 09:21:00;;;;;;;40.38;19.40;;;;;;;2.04;100.00;96369.03;4978983;28;20705;-78
2021/11/29 09:23:34;;;;;;;42.88;19.60;;;;;;;2.16;100.00;96369.41;4981658;28;20054;-78
2021/11/29 09:26:05;;;;;;;45.10;19.25;;;;;;;2.01;100.00;96360.84;4994243;28;20454;-79
2021/11/29 09:28:34;;;;;;;43.25;19.00;;;;;;;2.04;100.00;96386.97;4995661;28;20096;-79
2021/11/29 09:31:04;;;;;;;43.25;19.00;;;;;;;2.18;100.00;96374.44;4959418;28;20055;-79
2021/11/29 09:33:33;;;;;;;41.15;19.23;;;;;;;2.10;100.00;96362.56;4978218;28;20073;-80
2021/11/29 09:36:07;;;;;;;41.40;18.60;;;;;;;2.19;100.00;96381.38;4993209;28;20053;-79
2021/11/29 09:39:15;;;;;;;;;;;;;;;;;;;;;
2021/11/29 09:42:16;;;;;;;43.17;18.60;;;;;;;2.05;100.00;96365.31;4995716;28;20897;-84
2021/11/29 09:44:51;;;;;;;33.65;17.38;;;;;;;2.06;100.00;96358.91;4974728;28;20695;-79
2021/11/29 09:47:18;;;;;;;38.75;16.48;;;;;;;2.17;100.00;96383.56;4973131;28;20543;-78
2021/11/29 09:49:50;;;;;;;38.15;17.23;;;;;;;2.11;100.00;96372.16;4975177;28;20105;-75
2021/11/29 09:52:16;;;;;;;38.58;16.83;;;;;;;2.32;100.00;96372.63;4993415;28;20054;-76
2021/11/29 09:54:43;;;;;;;37.05;17.25;;;;;;;2.27;100.00;96378.81;4976148;28;20058;-75
2021/11/29 09:57:10;;;;;;;38.97;18.00;;;;;;;2.50;100.00;96369.09;4994883;28;20058;-74
2021/11/29 09:59:37;;;;;;;39.63;18.10;;;;;;;2.24;100.00;96378.63;4993025;28;20084;-78
2021/11/29 10:02:08;;;;;;;36.92;16.20;;;;;;;2.32;100.00;96378.72;4978184;28;20489;-78
2021/11/29 10:04:35;;;;;;;33.78;16.25;;;;;;;2.31;100.00;96369.16;4976733;28;20681;-76
2021/11/29 10:07:03;;;;;;;39.85;16.33;;;;;;;2.12;100.00;96372.94;4975743;28;20061;-77
2021/11/29 10:09:37;;;;;;;36.28;16.83;;;;;;;2.29;100.00;96378.53;4976391;28;20062;-77
2021/11/29 10:12:24;;;;;;;36.30;17.60;;;;;;;2.21;100.00;96365.84;4993870;28;20054;-77
2021/11/29 10:15:11;;;;;;;34.75;17.63;;;;;;;2.37;100.00;96386.69;4977244;28;20819;-77
2021/11/29 10:17:40;;;;;;;33.22;16.73;;;;;;;2.37;100.00;96380.53;4988078;28;20050;-79
2021/11/29 10:20:31;;;;;;;35.22;16.20;;;;;;;2.26;100.00;96368.44;4994484;28;20148;-78
2021/11/29 10:23:07;;;;;;;41.13;16.27;;;;;;;2.26;100.00;96381.78;4993559;28;20051;-77
2021/11/29 10:25:42;;;;;;;36.45;16.65;;;;;;;2.22;100.00;96376.22;4994318;28;20574;-77
2021/11/29 10:28:31;;;;;;;35.30;15.85;;;;;;;2.31;100.00;96382.50;4977326;28;20101;-79
2021/11/29 10:31:24;;;;;;;33.35;16.33;;;;;;;2.36;100.00;96378.94;4994566;28;20058;-76
2021/11/29 10:33:57;;;;;;;37.35;17.10;;;;;;;2.27;100.00;96389.50;4977078;28;20054;-76
2021/11/29 10:36:27;;;;;;;34.08;16.10;;;;;;;2.39;100.00;96378.38;4993972;28;20076;-77
2021/11/29 10:38:58;;;;;;;36.35;15.57;;;;;;;2.27;100.00;96384.16;4995234;28;20046;-76
2021/11/29 10:41:31;;;;;;;31.35;15.07;;;;;;;2.36;100.00;96376.28;4977382;28;20118;-79
2021/11/29 10:44:02;;;;;;;32.90;15.37;;;;;;;2.42;100.00;96383.91;4995630;28;20057;-78
2021/11/29 10:46:34;;;;;;;33.65;15.18;;;;;;;2.44;100.00;96380.94;4993547;28;20148;-78
2021/11/29 10:49:08;;;;;;;27.20;13.70;;;;;;;2.25;100.00;96377.53;4978130;28;20058;-79
2021/11/29 10:51:36;;;;;;;31.13;14.93;;;;;;;2.44;100.00;96375.59;4996852;28;20054;-80
2021/11/29 10:54:07;;;;;;;32.42;15.23;;;;;;;2.66;100.00;96381.06;4998406;28;20058;-79
2021/11/29 10:56:37;;;;;;;38.88;16.42;;;;;;;2.59;100.00;96379.88;4999038;28;20054;-78
2021/11/29 10:59:07;;;;;;;29.45;15.25;;;;;;;2.55;100.00;96384.22;4982458;28;20050;-78
2021/11/29 11:01:50;;;;;;;26.35;13.43;;;;;;;2.34;100.00;96392.59;4984076;28;20053;-76
2021/11/29 11:04:24;;;;;;;28.15;14.18;;;;;;;2.47;100.00;96394.50;4984318;28;20038;-78
2021/11/29 11:06:58;;;;;;;26.63;13.07;;;;;;;2.56;100.00;96385.81;5008250;28;20481;-80
2021/11/29 11:09:29;;;;;;;26.20;12.52;;;;;;;2.35;100.00;96401.38;4977404;28;20065;-77
2021/11/29 11:12:05;;;;;;;23.35;12.80;;;;;;;2.38;100.00;96400.78;4973989;28;20419;-79
2021/11/29 11:14:37;;;;;;;31.52;14.25;;;;;;;2.46;100.00;96403.59;4975058;28;20051;-77
2021/11/29 11:17:26;;;;;;;28.60;12.65;;;;;;;2.46;100.00;96400.13;4975681;28;20340;-78
2021/11/29 11:20:12;;;;;;;28.92;13.00;;;;;;;2.36;100.00;96405.66;4985133;28;20057;-78
2021/11/29 11:22:49;;;;;;;32.08;13.55;;;;;;;2.36;100.00;96403.78;4977701;28;20046;-78
2021/11/29 11:25:20;;;;;;;27.90;12.75;;;;;;;2.37;100.00;96396.56;4985787;28;20052;-81
2021/11/29 11:27:54;;;;;;;33.25;14.70;;;;;;;2.25;100.00;96399.66;4992882;28;20084;-82